Time;durP1;ratioP1;P1;durP2;ratioP2;P2;SDS_P1;SDS_P2;PMS_P1;PMS_P2;Temp;Humidity;BMP_temperature;BMP_pressure;BME280_temperature;BME280_humidity;BME280_pressure;Samples;Min_cycle;Max_cycle;Signal;HPM_P1;HPM_P2
2021/08/15 00:00:44;;;;;;;10.40;7.30;;;;;;;17.40;100.00;101118.55;1749931;79;21115;-82
2021/08/15 00:03:12;;;;;;;10.75;7.30;;;;;;;17.41;100.00;101115.45;1732712;81;21126;-81
2021/08/15 00:05:39;;;;;;;9.53;7.10;;;;;;;17.42;100.00;101115.80;1704054;81;21008;-82
2021/08/15 00:08:07;;;;;;;11.22;8.10;;;;;;;17.40;100.00;101112.48;1749767;79;21025;-81
2021/08/15 00:10:38;;;;;;;13.53;8.38;;;;;;;17.38;100.00;101116.58;1733147;80;21054;-82
2021/08/15 00:13:06;;;;;;;11.22;7.00;;;;;;;17.37;100.00;101116.70;1747006;79;21222;-82
2021/08/15 00:15:34;;;;;;;12.05;7.42;;;;;;;17.37;100.00;101112.76;1681589;83;21537;-81
2021/08/15 00:18:01;;;;;;;9.30;7.70;;;;;;;17.38;100.00;101110.00;1735974;79;21437;-84
2021/08/15 00:20:29;;;;;;;15.38;7.08;;;;;;;17.45;100.00;101113.70;1755764;80;21197;-82
2021/08/15 00:22:58;;;;;;;14.68;7.70;;;;;;;17.55;100.00;101110.14;1752500;81;21005;-84
2021/08/15 00:25:25;;;;;;;8.53;7.35;;;;;;;17.65;100.00;101109.13;1724789;81;21839;-80
2021/08/15 00:27:52;;;;;;;10.68;7.25;;;;;;;17.74;100.00;101104.75;1724603;81;21043;-82
2021/08/15 00:30:19;;;;;;;10.13;7.15;;;;;;;17.82;100.00;101105.33;1724859;81;21035;-82
2021/08/15 00:32:48;;;;;;;11.80;6.92;;;;;;;17.86;100.00;101105.34;1724677;81;21047;-80
2021/08/15 00:35:15;;;;;;;9.95;6.75;;;;;;;17.90;100.00;101101.92;1752447;81;21091;-81
2021/08/15 00:37:42;;;;;;;8.98;7.30;;;;;;;17.90;100.00;101100.60;1724773;81;21095;-80
2021/08/15 00:40:10;;;;;;;10.38;6.83;;;;;;;17.88;100.00;101097.28;1752366;81;21039;-80
2021/08/15 00:42:36;;;;;;;9.08;6.83;;;;;;;17.86;100.00;101096.62;1696817;83;21026;-82
2021/08/15 00:45:06;;;;;;;8.18;6.47;;;;;;;17.83;100.00;101103.00;1722293;82;21051;-82
2021/08/15 00:47:33;;;;;;;9.30;7.20;;;;;;;17.83;100.00;101096.42;1695730;83;20952;-82
2021/08/15 00:50:02;;;;;;;12.28;7.17;;;;;;;17.81;100.00;101096.58;1722463;82;21145;-80
2021/08/15 00:52:31;;;;;;;8.65;7.15;;;;;;;17.79;100.00;101090.63;1722351;82;21563;-82
2021/08/15 00:55:01;;;;;;;7.92;6.22;;;;;;;17.76;100.00;101094.05;1695589;83;20996;-83
2021/08/15 00:57:31;;;;;;;8.78;7.65;;;;;;;17.72;100.00;101092.21;1695801;82;21087;-81
2021/08/15 01:00:07;;;;;;;16.32;7.10;;;;;;;17.66;100.00;101090.19;1695592;83;21123;-82
2021/08/15 01:02:40;;;;;;;15.75;7.10;;;;;;;17.59;100.00;101093.90;1695880;82;21775;-80
2021/08/15 01:05:08;;;;;;;12.53;7.55;;;;;;;17.55;100.00;101091.24;1695531;82;21119;-83
2021/08/15 01:07:37;;;;;;;10.23;7.17;;;;;;;17.52;100.00;101088.90;1695834;82;21058;-81
2021/08/15 01:10:06;;;;;;;11.28;7.92;;;;;;;17.48;100.00;101090.19;1695626;82;21055;-81
2021/08/15 01:12:33;;;;;;;10.13;7.37;;;;;;;17.41;100.00;101091.77;1696089;83;21036;-82
2021/08/15 01:15:00;;;;;;;11.88;7.33;;;;;;;17.30;100.00;101090.98;1695753;82;21055;-83
2021/08/15 01:17:29;;;;;;;11.80;7.75;;;;;;;17.18;100.00;101089.55;1722274;82;21102;-84
2021/08/15 01:19:58;;;;;;;12.88;8.18;;;;;;;17.07;100.00;101091.05;1722031;82;21071;-82
2021/08/15 01:22:27;;;;;;;12.40;9.20;;;;;;;16.97;100.00;101089.80;1707724;81;21054;-84
2021/08/15 01:24:58;;;;;;;12.45;8.65;;;;;;;16.90;100.00;101091.32;1705961;81;21074;-81
2021/08/15 01:27:26;;;;;;;10.70;9.50;;;;;;;16.84;100.00;101088.78;1733942;82;21727;-83
2021/08/15 01:29:54;;;;;;;15.20;10.20;;;;;;;16.80;100.00;101094.81;1704385;83;21149;-82
2021/08/15 01:32:21;;;;;;;18.40;11.08;;;;;;;16.80;100.00;101092.65;1730166;81;21464;-81
2021/08/15 01:34:48;;;;;;;20.95;12.98;;;;;;;16.80;100.00;101084.30;1708090;83;21650;-82
2021/08/15 01:37:22;;;;;;;20.00;13.28;;;;;;;16.79;100.00;101089.20;1751601;81;21029;-83
2021/08/15 01:39:50;;;;;;;21.07;13.43;;;;;;;16.78;100.00;101090.67;1727380;81;21290;-82
2021/08/15 01:42:17;;;;;;;18.37;12.58;;;;;;;16.76;100.00;101093.43;1751505;80;21621;-82
2021/08/15 01:44:44;;;;;;;17.95;12.45;;;;;;;16.75;100.00;101093.58;1730382;81;21004;-81
2021/08/15 01:47:11;;;;;;;14.43;11.35;;;;;;;16.72;100.00;101095.52;1751612;80;21005;-81
2021/08/15 01:49:40;;;;;;;14.30;10.95;;;;;;;16.72;100.00;101093.39;1751692;80;21084;-83
2021/08/15 01:52:07;;;;;;;19.57;10.80;;;;;;;16.70;100.00;101099.27;1751678;80;21082;-81
2021/08/15 01:54:33;;;;;;;13.72;10.20;;;;;;;16.63;100.00;101088.98;1730062;80;22035;-83
2021/08/15 01:57:03;;;;;;;13.15;10.05;;;;;;;16.58;100.00;101089.42;1775649;79;21602;-82
2021/08/15 01:59:31;;;;;;;16.87;9.78;;;;;;;16.56;100.00;101096.61;1758784;80;20969;-81
2021/08/15 02:01:59;;;;;;;14.58;10.00;;;;;;;16.55;100.00;101097.11;1776318;79;21141;-81
2021/08/15 02:04:26;;;;;;;17.95;9.93;;;;;;;16.56;100.00;101094.83;1730024;81;21806;-82
2021/08/15 02:06:53;;;;;;;9.93;8.70;;;;;;;16.63;100.00;101091.62;1751357;81;21106;-81
2021/08/15 02:09:20;;;;;;;12.58;8.98;;;;;;;16.69;100.00;101091.88;1730272;81;21056;-80
2021/08/15 02:11:49;;;;;;;14.20;7.90;;;;;;;16.70;100.00;101092.20;1751336;80;21075;-82
2021/08/15 02:14:17;;;;;;;11.65;8.53;;;;;;;16.68;100.00;101091.53;1751288;80;21047;-80
2021/08/15 02:16:45;;;;;;;19.80;8.70;;;;;;;16.69;100.00;101094.98;1751186;80;21976;-84
2021/08/15 02:19:11;;;;;;;10.35;8.40;;;;;;;16.67;100.00;101097.77;1730141;80;21495;-82
2021/08/15 02:21:38;;;;;;;11.10;8.03;;;;;;;16.67;100.00;101099.08;1747867;80;20957;-82
2021/08/15 02:24:06;;;;;;;16.62;9.13;;;;;;;16.66;100.00;101102.67;1703058;81;21031;-80
2021/08/15 02:26:33;;;;;;;13.20;10.05;;;;;;;16.67;100.00;101100.39;1703389;83;21076;-81
2021/08/15 02:29:01;;;;;;;11.78;9.85;;;;;;;16.72;100.00;101101.28;1719960;82;21119;-81
2021/08/15 02:31:27;;;;;;;14.58;10.13;;;;;;;16.77;100.00;101102.16;1725914;81;21043;-83
2021/08/15 02:33:54;;;;;;;14.35;10.23;;;;;;;16.76;100.00;101110.52;1739288;81;21549;-81
2021/08/15 02:36:21;;;;;;;18.12;11.28;;;;;;;16.79;100.00;101112.88;1701546;83;21021;-82
2021/08/15 02:38:48;;;;;;;18.30;11.22;;;;;;;16.82;100.00;101113.06;1747974;81;21082;-83
2021/08/15 02:41:15;;;;;;;18.10;11.50;;;;;;;16.85;100.00;101111.48;1702562;81;21055;-82
2021/08/15 02:43:41;;;;;;;15.15;10.30;;;;;;;16.89;100.00;101115.46;1749744;79;21068;-81
2021/08/15 02:46:08;;;;;;;27.30;11.95;;;;;;;16.95;100.00;101107.02;1756841;80;21503;-81
2021/08/15 02:48:37;;;;;;;18.65;11.65;;;;;;;17.01;100.00;101104.30;1750081;81;21595;-83
2021/08/15 02:51:04;;;;;;;15.85;10.75;;;;;;;17.03;100.00;101109.75;1756560;80;20999;-81
2021/08/15 02:53:31;;;;;;;16.52;10.95;;;;;;;17.07;100.00;101111.59;1750244;79;21811;-81
2021/08/15 02:55:58;;;;;;;26.05;11.78;;;;;;;17.11;100.00;101112.13;1732775;80;20945;-84
2021/08/15 02:58:25;;;;;;;26.42;11.68;;;;;;;17.11;100.00;101109.50;1756368;80;21070;-80
2021/08/15 03:00:54;;;;;;;61.40;14.25;;;;;;;17.10;100.00;101111.31;1749117;81;21056;-79
2021/08/15 03:03:21;;;;;;;36.28;13.70;;;;;;;17.11;100.00;101106.40;1732587;80;21087;-84
2021/08/15 03:05:48;;;;;;;29.27;16.75;;;;;;;17.10;100.00;101111.81;1732003;80;21179;-82
2021/08/15 03:08:15;;;;;;;22.35;14.78;;;;;;;17.07;100.00;101114.23;1752454;81;21547;-81
2021/08/15 03:10:44;;;;;;;38.88;21.25;;;;;;;17.05;100.00;101106.14;1695898;83;21587;-82
2021/08/15 03:13:12;;;;;;;38.83;22.40;;;;;;;17.00;100.00;101104.80;1770676;79;21123;-82
2021/08/15 03:15:41;;;;;;;22.37;14.15;;;;;;;16.97;100.00;101099.81;1695811;83;21462;-81
2021/08/15 03:18:08;;;;;;;19.60;12.33;;;;;;;16.92;100.00;101100.72;1770774;80;21046;-80
2021/08/15 03:20:35;;;;;;;17.80;9.35;;;;;;;16.87;100.00;101111.67;1673995;83;21028;-82
2021/08/15 03:23:04;;;;;;;12.78;8.73;;;;;;;16.83;100.00;101112.09;1741474;81;21123;-83
2021/08/15 03:25:31;;;;;;;9.30;8.05;;;;;;;16.79;100.00;101110.72;1718774;82;21352;-81
2021/08/15 03:27:58;;;;;;;10.72;7.85;;;;;;;16.72;100.00;101112.61;1726339;82;21004;-83
2021/08/15 03:30:26;;;;;;;11.70;7.40;;;;;;;16.68;100.00;101117.83;1770765;79;21046;-80
2021/08/15 03:32:52;;;;;;;14.05;7.58;;;;;;;16.64;100.00;101114.31;1702478;83;20952;-82
2021/08/15 03:35:19;;;;;;;8.75;7.50;;;;;;;16.64;100.00;101111.69;1770509;80;21085;-80
2021/08/15 03:37:47;;;;;;;10.72;8.00;;;;;;;16.65;100.00;101114.16;1702415;81;21115;-80
2021/08/15 03:40:15;;;;;;;11.30;8.05;;;;;;;16.66;100.00;101117.63;1771030;80;21080;-81
2021/08/15 03:42:42;;;;;;;9.78;8.70;;;;;;;16.75;100.00;101113.30;1726653;81;21145;-80
2021/08/15 03:45:11;;;;;;;13.60;9.18;;;;;;;16.86;100.00;101109.19;1741462;81;21068;-81
2021/08/15 03:47:38;;;;;;;12.43;9.95;;;;;;;16.97;100.00;101104.26;1702097;83;21110;-83
2021/08/15 03:50:07;;;;;;;13.93;10.50;;;;;;;17.06;100.00;101106.49;1770493;79;21072;-84
2021/08/15 03:52:40;;;;;;;25.10;17.00;;;;;;;17.11;100.00;101101.14;1673447;83;21106;-83
2021/08/15 03:55:14;;;;;;;29.23;21.77;;;;;;;17.11;100.00;101109.03;1741469;81;20966;-80
2021/08/15 03:57:41;;;;;;;40.15;29.77;;;;;;;17.09;100.00;101108.34;1696128;83;21075;-83
2021/08/15 04:00:10;;;;;;;50.28;37.30;;;;;;;17.11;100.00;101106.88;1720250;81;21622;-82
2021/08/15 04:02:37;;;;;;;48.08;35.68;;;;;;;17.10;100.00;101105.24;1673882;83;21115;-80
2021/08/15 04:05:05;;;;;;;42.38;32.48;;;;;;;17.10;100.00;101099.98;1741475;81;21087;-82
2021/08/15 04:07:33;;;;;;;42.48;28.83;;;;;;;17.05;100.00;101099.09;1704842;82;21019;-83
2021/08/15 04:10:02;;;;;;;35.05;26.77;;;;;;;17.00;100.00;101099.53;1720097;81;21076;-83
2021/08/15 04:12:30;;;;;;;34.20;25.82;;;;;;;16.97;100.00;101096.37;1746067;80;21083;-83
2021/08/15 04:14:58;;;;;;;20.02;16.95;;;;;;;16.95;100.00;101100.44;1745199;80;21020;-83
2021/08/15 04:17:25;;;;;;;15.35;12.00;;;;;;;16.94;100.00;101102.75;1718138;80;21071;-81
2021/08/15 04:19:53;;;;;;;11.88;10.65;;;;;;;16.94;100.00;101103.22;1745156;81;21158;-80
2021/08/15 04:22:20;;;;;;;11.80;9.65;;;;;;;16.96;100.00;101100.78;1717447;82;21070;-81
2021/08/15 04:24:47;;;;;;;9.93;8.43;;;;;;;17.02;100.00;101103.33;1705216;83;21069;-82
2021/08/15 04:27:14;;;;;;;11.90;8.85;;;;;;;17.07;100.00;101111.59;1736695;80;21024;-81
2021/08/15 04:29:42;;;;;;;10.98;8.15;;;;;;;17.15;100.00;101110.88;1739047;80;21107;-84
2021/08/15 04:32:09;;;;;;;11.57;8.80;;;;;;;17.28;100.00;101110.03;1732956;81;21059;-80
2021/08/15 04:34:37;;;;;;;10.13;8.98;;;;;;;17.38;100.00;101112.63;1732720;81;20989;-82
2021/08/15 04:37:04;;;;;;;11.83;8.65;;;;;;;17.45;100.00;101103.64;1684034;83;21060;-82
2021/08/15 04:39:31;;;;;;;12.58;8.33;;;;;;;17.48;100.00;101102.84;1749833;80;21800;-83
2021/08/15 04:41:59;;;;;;;9.13;8.18;;;;;;;17.51;100.00;101101.72;1756357;80;21466;-83
2021/08/15 04:44:26;;;;;;;9.18;7.67;;;;;;;17.52;100.00;101103.38;1756217;80;21991;-82
2021/08/15 04:46:55;;;;;;;8.78;7.87;;;;;;;17.52;100.00;101098.61;1754413;80;21024;-81
2021/08/15 04:49:22;;;;;;;13.72;7.70;;;;;;;17.52;100.00;101100.74;1703615;83;21029;-82
2021/08/15 04:51:49;;;;;;;7.65;6.90;;;;;;;17.49;100.00;101103.19;1712202;81;21020;-83
2021/08/15 04:54:17;;;;;;;11.22;8.45;;;;;;;17.49;100.00;101098.42;1719724;81;21025;-81
2021/08/15 04:56:44;;;;;;;11.25;8.05;;;;;;;17.52;100.00;101101.25;1725844;82;21671;-82
2021/08/15 04:59:12;;;;;;;9.70;7.72;;;;;;;17.56;100.00;101098.16;1752711;80;21009;-81
2021/08/15 05:01:40;;;;;;;8.20;7.40;;;;;;;17.64;100.00;101098.25;1732668;80;20978;-81
2021/08/15 05:04:07;;;;;;;11.73;7.53;;;;;;;17.73;100.00;101097.83;1732590;81;21065;-80
2021/08/15 05:06:34;;;;;;;9.78;7.15;;;;;;;17.81;100.00;101091.81;1723944;81;21546;-81
2021/08/15 05:09:03;;;;;;;9.93;7.78;;;;;;;17.90;100.00;101094.02;1733270;80;21382;-83
2021/08/15 05:11:30;;;;;;;9.83;7.03;;;;;;;17.97;100.00;101094.62;1756334;80;21095;-81
2021/08/15 05:13:59;;;;;;;8.70;7.03;;;;;;;18.07;100.00;101094.99;1732424;81;21053;-84
2021/08/15 05:16:26;;;;;;;11.15;7.42;;;;;;;18.15;100.00;101092.42;1732722;80;21590;-83
2021/08/15 05:18:55;;;;;;;11.38;7.50;;;;;;;18.24;100.00;101092.82;1756362;80;21028;-81
2021/08/15 05:21:22;;;;;;;10.65;7.28;;;;;;;18.29;100.00;101086.61;1756024;80;21043;-80
2021/08/15 05:23:49;;;;;;;9.85;6.87;;;;;;;18.33;100.00;101092.41;1755160;80;21004;-81
2021/08/15 05:26:17;;;;;;;9.75;7.10;;;;;;;18.36;100.00;101084.67;1755386;80;21120;-82
2021/08/15 05:28:43;;;;;;;10.38;6.22;;;;;;;18.40;100.00;101087.31;1755743;80;21115;-82
2021/08/15 05:31:11;;;;;;;10.32;6.58;;;;;;;18.47;100.00;101084.90;1755485;80;21536;-79
2021/08/15 05:33:38;;;;;;;13.68;6.55;;;;;;;18.53;100.00;101083.80;1755540;80;21063;-84
2021/08/15 05:36:06;;;;;;;7.15;6.35;;;;;;;18.62;100.00;101077.24;1755495;80;21111;-82
2021/08/15 05:38:33;;;;;;;8.18;6.65;;;;;;;18.70;100.00;101073.33;1755524;80;21112;-80
2021/08/15 05:40:59;;;;;;;8.38;6.55;;;;;;;18.80;100.00;101081.11;1755776;80;21087;-81
2021/08/15 05:43:27;;;;;;;7.08;6.25;;;;;;;18.89;100.00;101078.34;1755870;80;21064;-81
2021/08/15 05:45:54;;;;;;;8.68;5.85;;;;;;;19.03;100.00;101080.91;1767000;79;21085;-81
2021/08/15 05:48:21;;;;;;;8.80;6.42;;;;;;;19.19;100.00;101084.08;1743973;79;21037;-81
2021/08/15 05:50:49;;;;;;;9.78;6.35;;;;;;;19.37;100.00;101080.49;1771360;80;21038;-80
2021/08/15 05:53:16;;;;;;;7.45;6.58;;;;;;;19.53;100.00;101087.13;1746108;80;21079;-80
2021/08/15 05:55:43;;;;;;;9.83;6.53;;;;;;;19.72;100.00;101085.17;1770678;79;21415;-82
2021/08/15 05:58:10;;;;;;;7.92;6.20;;;;;;;19.86;100.00;101080.58;1744094;80;21106;-82
2021/08/15 06:00:39;;;;;;;11.88;6.17;;;;;;;20.01;100.00;101075.94;1768783;79;20962;-80
2021/08/15 06:03:06;;;;;;;7.17;6.20;;;;;;;20.14;100.00;101073.63;1752456;79;21087;-79
2021/08/15 06:05:33;;;;;;;8.58;5.62;;;;;;;20.27;100.00;101077.56;1740593;81;21020;-81
2021/08/15 06:08:00;;;;;;;7.70;5.40;;;;;;;20.39;100.00;101072.23;1732523;80;21523;-81
2021/08/15 06:10:27;;;;;;;6.65;6.03;;;;;;;20.55;100.00;101077.19;1732851;81;21050;-79
2021/08/15 06:12:54;;;;;;;6.33;5.60;;;;;;;20.71;100.00;101078.42;1746721;80;21005;-81
2021/08/15 06:15:21;;;;;;;6.10;5.30;;;;;;;20.87;100.00;101077.58;1757893;80;21539;-80
2021/08/15 06:17:48;;;;;;;8.95;6.08;;;;;;;21.04;100.00;101078.31;1744316;80;21001;-83
2021/08/15 06:20:16;;;;;;;7.03;5.28;;;;;;;21.18;100.00;101067.48;1763526;79;21013;-80
2021/08/15 06:22:47;;;;;;;6.20;5.58;;;;;;;21.33;100.00;101071.55;1749981;80;21566;-80
2021/08/15 06:25:16;;;;;;;7.17;6.08;;;;;;;21.44;100.00;101068.48;1741249;81;21052;-80
2021/08/15 06:27:46;;;;;;;6.20;5.60;;;;;;;21.55;100.00;101065.10;1745081;79;20957;-80
2021/08/15 06:30:18;;;;;;;6.37;5.77;;;;;;;21.63;100.00;101073.53;1746204;81;20966;-80
2021/08/15 06:32:49;;;;;;;9.53;5.80;;;;;;;21.69;100.00;101065.68;1695729;83;21110;-81
2021/08/15 06:35:21;;;;;;;10.58;5.95;;;;;;;21.79;100.00;101061.48;1769728;79;21183;-80
2021/08/15 06:37:50;;;;;;;8.15;5.72;;;;;;;21.90;100.00;101065.52;1743437;81;21549;-80
2021/08/15 06:40:19;;;;;;;6.70;5.77;;;;;;;22.05;100.00;101070.84;1756625;80;21048;-81
2021/08/15 06:42:46;;;;;;;6.58;5.95;;;;;;;22.16;100.00;101064.27;1728593;81;21051;-80
2021/08/15 06:45:13;;;;;;;9.23;6.00;;;;;;;22.25;100.00;101064.51;1749698;80;21016;-79
2021/08/15 06:47:40;;;;;;;8.28;5.75;;;;;;;22.38;100.00;101066.05;1705172;81;21842;-80
2021/08/15 06:50:08;;;;;;;6.50;5.70;;;;;;;22.50;100.00;101065.59;1727807;82;20997;-79
2021/08/15 06:52:35;;;;;;;7.28;6.10;;;;;;;22.62;100.00;101069.94;1761894;80;21528;-82
2021/08/15 06:55:04;;;;;;;6.95;5.95;;;;;;;22.71;100.00;101068.84;1754820;79;21017;-81
2021/08/15 06:57:31;;;;;;;11.40;5.62;;;;;;;22.83;100.00;101065.20;1730726;80;21000;-79
2021/08/15 06:59:58;;;;;;;8.50;5.90;;;;;;;22.96;100.00;101061.89;1749764;80;21050;-81
2021/08/15 07:02:25;;;;;;;7.10;5.60;;;;;;;23.07;100.00;101060.58;1725416;81;21037;-81
2021/08/15 07:04:54;;;;;;;6.20;5.62;;;;;;;23.17;100.00;101058.45;1724697;82;20953;-82
2021/08/15 07:07:23;;;;;;;7.47;5.90;;;;;;;23.27;100.00;101060.33;1744101;80;20965;-81
2021/08/15 07:09:50;;;;;;;6.55;5.62;;;;;;;23.36;100.00;101057.03;1749828;81;20981;-80
2021/08/15 07:12:17;;;;;;;11.63;5.75;;;;;;;23.46;100.00;101057.55;1744273;80;21183;-80
2021/08/15 07:14:44;;;;;;;11.60;6.37;;;;;;;23.55;100.00;101052.11;1702985;83;21629;-81
2021/08/15 07:17:12;;;;;;;9.80;6.05;;;;;;;23.65;100.00;101055.77;1725970;82;21066;-81
2021/08/15 07:19:39;;;;;;;9.93;6.65;;;;;;;23.75;100.00;101052.28;1725987;81;21004;-81
2021/08/15 07:22:06;;;;;;;5.33;4.83;;;;;;;23.85;100.00;101057.25;1677035;82;21042;-80
2021/08/15 07:24:33;;;;;;;8.73;5.75;;;;;;;23.92;100.00;101053.61;1701584;83;21533;-82
2021/08/15 07:27:01;;;;;;;6.53;5.22;;;;;;;24.04;96.61;101059.25;1698239;81;21083;-80
2021/08/15 07:29:28;;;;;;;10.70;5.28;;;;;;;24.14;90.75;101058.93;1742148;81;21040;-81
2021/08/15 07:31:55;;;;;;;10.72;5.42;;;;;;;24.23;95.87;101061.76;1726225;81;21506;-80
2021/08/15 07:34:22;;;;;;;9.38;5.55;;;;;;;24.35;92.83;101058.53;1770529;79;20981;-80
2021/08/15 07:36:49;;;;;;;5.92;4.87;;;;;;;24.46;83.25;101061.98;1702294;83;21038;-81
2021/08/15 07:39:16;;;;;;;8.88;5.08;;;;;;;24.55;77.22;101058.63;1731624;81;21036;-81
2021/08/15 07:41:45;;;;;;;7.10;5.58;;;;;;;24.63;79.98;101053.66;1726555;81;21075;-81
2021/08/15 07:44:12;;;;;;;6.50;5.80;;;;;;;24.72;75.87;101061.80;1741555;81;21464;-81
2021/08/15 07:46:40;;;;;;;9.03;5.47;;;;;;;24.82;81.68;101061.45;1702310;81;21046;-81
2021/08/15 07:49:07;;;;;;;7.35;5.50;;;;;;;24.96;80.09;101053.81;1770783;79;21987;-82
2021/08/15 07:51:34;;;;;;;6.17;5.03;;;;;;;25.10;84.40;101056.01;1702206;81;21051;-81
2021/08/15 07:54:01;;;;;;;7.33;5.37;;;;;;;25.23;68.88;101051.72;1770831;80;21044;-80
2021/08/15 07:56:27;;;;;;;5.53;4.70;;;;;;;25.31;66.21;101046.20;1702433;83;21034;-80
2021/08/15 07:58:54;;;;;;;5.53;4.95;;;;;;;25.36;62.53;101049.89;1720330;81;22021;-80
2021/08/15 08:01:23;;;;;;;4.95;4.35;;;;;;;25.44;61.03;101051.56;1702219;83;21071;-81
2021/08/15 08:03:50;;;;;;;8.23;4.80;;;;;;;25.53;63.95;101052.20;1748906;80;21531;-82
2021/08/15 08:06:17;;;;;;;7.60;4.97;;;;;;;25.61;65.05;101050.66;1703373;81;21066;-81
2021/08/15 08:08:45;;;;;;;11.85;5.15;;;;;;;25.70;61.93;101048.60;1723303;81;21050;-81
2021/08/15 08:11:12;;;;;;;7.85;4.80;;;;;;;25.76;58.42;101049.11;1727534;81;21110;-81
2021/08/15 08:13:38;;;;;;;6.92;5.15;;;;;;;25.76;56.69;101045.11;1738983;80;21895;-81
2021/08/15 08:16:05;;;;;;;5.55;4.50;;;;;;;25.73;56.07;101046.87;1727217;81;21110;-80
2021/08/15 08:18:33;;;;;;;9.45;5.20;;;;;;;25.70;57.24;101043.80;1742304;79;21037;-80
2021/08/15 08:21:01;;;;;;;8.13;4.83;;;;;;;25.69;61.78;101044.30;1743951;80;21138;-80
2021/08/15 08:23:28;;;;;;;6.08;4.70;;;;;;;25.71;55.11;101048.91;1750108;79;21050;-81
2021/08/15 08:25:57;;;;;;;6.37;4.40;;;;;;;25.65;56.91;101048.41;1727520;80;21918;-85
2021/08/15 08:28:24;;;;;;;5.95;5.22;;;;;;;25.56;57.26;101038.97;1732569;79;21504;-80
2021/08/15 08:30:51;;;;;;;6.90;4.83;;;;;;;25.51;55.03;101040.42;1752710;80;20992;-82
2021/08/15 08:33:18;;;;;;;9.58;4.80;;;;;;;25.47;54.71;101039.70;1752636;80;21036;-80
2021/08/15 08:35:45;;;;;;;9.05;5.20;;;;;;;25.42;55.21;101044.30;1752879;79;22235;-79
2021/08/15 08:38:12;;;;;;;5.60;4.70;;;;;;;25.38;52.42;101035.55;1765737;79;21156;-80
2021/08/15 08:40:40;;;;;;;6.35;4.55;;;;;;;25.37;48.78;101033.38;1788887;79;21069;-80
2021/08/15 08:43:07;;;;;;;6.10;4.30;;;;;;;25.42;50.01;101048.80;1724433;81;21520;-80
2021/08/15 08:45:39;;;;;;;8.70;4.78;;;;;;;25.44;48.16;101042.23;1732438;82;21635;-81
2021/08/15 08:48:07;;;;;;;5.85;4.55;;;;;;;25.46;49.71;101036.72;1716585;82;21147;-80
2021/08/15 08:50:36;;;;;;;6.10;4.37;;;;;;;25.49;50.64;101033.63;1717358;82;21080;-79
2021/08/15 08:53:03;;;;;;;5.62;4.97;;;;;;;25.53;50.20;101034.03;1686016;82;21013;-79
2021/08/15 08:55:30;;;;;;;7.90;4.62;;;;;;;25.56;49.71;101030.97;1698415;82;21116;-80
2021/08/15 08:57:57;;;;;;;5.97;4.50;;;;;;;25.67;51.00;101039.17;1735907;81;21515;-79
2021/08/15 09:00:24;;;;;;;6.72;4.47;;;;;;;25.86;51.95;101026.05;1741908;80;21009;-83
2021/08/15 09:02:57;;;;;;;5.75;4.58;;;;;;;26.09;51.69;101030.13;1742462;81;21152;-79
2021/08/15 09:05:34;;;;;;;6.40;4.78;;;;;;;26.30;52.49;101033.86;1739402;82;21421;-79
2021/08/15 09:08:04;;;;;;;9.23;4.47;;;;;;;26.50;48.84;101023.65;1742178;81;21033;-81
2021/08/15 09:10:37;;;;;;;7.55;5.15;;;;;;;26.63;45.97;101024.61;1714360;81;20962;-80
2021/08/15 09:13:09;;;;;;;7.12;4.85;;;;;;;26.71;44.08;101022.53;1747937;80;21056;-81
2021/08/15 09:15:37;;;;;;;6.95;4.60;;;;;;;26.86;44.38;101014.24;1742114;81;21215;-82
2021/08/15 09:18:06;;;;;;;5.75;4.37;;;;;;;26.97;43.47;101014.07;1737115;82;21540;-83
2021/08/15 09:20:45;;;;;;;5.75;4.45;;;;;;;27.05;43.51;101017.83;1717814;82;21590;-81
2021/08/15 09:23:32;;;;;;;9.70;4.70;;;;;;;27.13;42.49;101020.77;1672070;81;21522;-80
2021/08/15 09:26:21;;;;;;;25.27;5.30;;;;;;;27.07;41.66;101015.77;1730370;81;21106;-82
2021/08/15 09:28:51;;;;;;;5.97;4.60;;;;;;;26.85;40.67;101006.45;1724456;81;21066;-80
2021/08/15 09:31:29;;;;;;;9.03;5.17;;;;;;;26.61;42.90;101008.80;1724483;81;21043;-81
2021/08/15 09:33:58;;;;;;;9.00;4.50;;;;;;;26.44;42.71;101004.48;1724308;81;21612;-80
2021/08/15 09:36:41;;;;;;;11.08;4.80;;;;;;;26.28;42.67;101003.89;1724464;81;21123;-80
2021/08/15 09:39:11;;;;;;;9.83;5.28;;;;;;;26.20;42.61;101007.31;1712068;81;21122;-81
2021/08/15 09:41:40;;;;;;;12.17;5.10;;;;;;;26.10;43.50;100997.09;1725105;81;21078;-80
2021/08/15 09:44:26;;;;;;;7.50;4.87;;;;;;;26.04;43.96;100994.70;1724279;81;21586;-80
2021/08/15 09:47:07;;;;;;;6.97;4.62;;;;;;;26.01;43.64;100988.97;1752278;81;21526;-79
2021/08/15 09:49:44;;;;;;;13.28;4.97;;;;;;;25.95;43.28;100988.79;1661853;83;21080;-81
2021/08/15 09:52:16;;;;;;;6.35;4.80;;;;;;;25.86;43.05;100982.03;1709700;82;21563;-80
2021/08/15 09:55:00;;;;;;;5.95;5.30;;;;;;;25.80;45.03;100981.50;1680788;83;22214;-82
2021/08/15 09:57:35;;;;;;;5.80;5.20;;;;;;;25.80;44.47;100981.50;1708823;82;21068;-79
2021/08/15 10:00:24;;;;;;;6.95;5.40;;;;;;;25.88;45.60;100973.28;1779762;79;21073;-80
2021/08/15 10:02:51;;;;;;;7.95;4.95;;;;;;;26.07;46.03;100974.29;1708474;83;21492;-80
2021/08/15 10:05:18;;;;;;;8.13;5.28;;;;;;;26.30;46.37;100971.67;1713103;82;21119;-80
2021/08/15 10:07:47;;;;;;;8.50;5.37;;;;;;;26.47;45.37;100976.53;1687578;83;21117;-79
2021/08/15 10:10:17;;;;;;;7.22;5.50;;;;;;;26.59;45.05;100970.81;1736962;82;21128;-80
2021/08/15 10:12:45;;;;;;;6.97;4.87;;;;;;;26.69;44.56;100970.34;1712510;82;20989;-79
2021/08/15 10:15:15;;;;;;;8.70;5.05;;;;;;;26.80;44.38;100968.36;1737649;81;47444;-79
2021/08/15 10:17:45;;;;;;;6.65;5.47;;;;;;;26.91;44.55;100967.69;1710936;81;21441;-80
2021/08/15 10:20:26;;;;;;;5.55;4.50;;;;;;;27.03;44.42;100966.48;1737890;82;21190;-81
2021/08/15 10:23:12;;;;;;;7.60;4.90;;;;;;;27.09;44.09;100971.45;1736541;81;20966;-81
2021/08/15 10:25:44;;;;;;;10.63;5.80;;;;;;;27.06;42.17;100958.00;1719631;83;21412;-79
2021/08/15 10:28:40;;;;;;;5.97;4.97;;;;;;;27.05;43.15;100952.36;1723996;82;21569;-81
2021/08/15 10:31:07;;;;;;;9.65;4.92;;;;;;;27.04;43.11;100953.39;1725742;82;21075;-79
2021/08/15 10:33:39;;;;;;;8.93;5.55;;;;;;;27.00;43.15;100950.06;1725706;82;21044;-80
2021/08/15 10:36:20;;;;;;;6.10;5.47;;;;;;;26.94;42.99;100939.72;1716125;82;21133;-81
2021/08/15 10:38:49;;;;;;;6.67;5.60;;;;;;;26.90;43.94;100944.67;1702178;82;21011;-80
2021/08/15 10:41:51;;;;;;;8.63;5.60;;;;;;;26.86;44.66;100943.98;1713141;83;21157;-81
2021/08/15 10:44:20;;;;;;;8.03;5.47;;;;;;;26.83;43.86;100937.73;1705840;82;21113;-80
2021/08/15 10:47:12;;;;;;;10.85;5.37;;;;;;;26.79;45.36;100937.88;1711143;83;21143;-80
2021/08/15 10:49:52;;;;;;;8.50;5.62;;;;;;;26.79;45.70;100935.20;1691613;82;21309;-78
2021/08/15 10:52:42;;;;;;;9.00;5.67;;;;;;;26.79;45.84;100937.34;1732481;81;21541;-79
2021/08/15 10:55:14;;;;;;;7.35;5.33;;;;;;;26.79;46.68;100929.86;1697541;82;20956;-80
2021/08/15 10:57:55;;;;;;;8.80;6.00;;;;;;;26.78;46.40;100931.69;1749046;81;21040;-81
2021/08/15 11:00:37;;;;;;;6.05;5.47;;;;;;;26.78;46.08;100930.36;1726022;81;21101;-82
2021/08/15 11:03:18;;;;;;;11.50;5.60;;;;;;;26.78;45.38;100931.69;1725182;82;21123;-81
2021/08/15 11:05:44;;;;;;;7.20;5.07;;;;;;;26.74;44.40;100931.80;1690217;83;21055;-85
2021/08/15 11:08:29;;;;;;;6.40;5.03;;;;;;;26.66;44.24;100937.41;1701472;83;21013;-83
2021/08/15 11:11:07;;;;;;;7.75;5.05;;;;;;;26.57;45.09;100931.48;1699017;82;20962;-84
2021/08/15 11:13:36;;;;;;;8.68;5.37;;;;;;;26.48;45.22;100926.11;1736809;81;21142;-82
2021/08/15 11:16:31;;;;;;;6.97;5.67;;;;;;;26.41;46.99;100925.61;1736381;81;21051;-81
2021/08/15 11:19:14;;;;;;;8.78;6.00;;;;;;;26.38;45.72;100919.88;1726061;81;21536;-81
2021/08/15 11:22:26;;;;;;;15.50;6.42;;;;;;;26.34;45.40;100923.49;1709879;82;21065;-83
2021/08/15 11:25:03;;;;;;;10.78;5.05;;;;;;;26.28;45.44;100913.15;1710526;82;20990;-81